Tonsina, Alaska
Current Conditions -  °F | °C
As of 5:59 PM on Saturday 25 Oct 2014 (Local Time) from PAGK Reporting Station
Light Snow Light Snow  
Wind Chill: 27°   Ceiling: 3000
Heat Index: 27°   Visibility: 2mi
Dew Point: 25°   Wind: 3mph
Humidity: 92%   Direction: 280°W
Pressure: 29.78"   Gusts: NA
Location:  61.66°N, 145.18°W
Report Text: PAGK 260159Z AUTO 28003KT 2SM -SN BR OVC030 M03/M04 A2978 RMK AO2 P0000 T10281039 TSNO
Loading
Personal Weather Stations






























Interactive Weather Map
Tropical Storm Tracking
New forecast layout! Learn more

10-Day Weather Forecast

Advertisements
Track Severe Weather on mobile